createdAt,value
2023-03-14T00:00:52.057Z,94347.00
2023-03-14T00:01:52.098Z,94339.00
2023-03-14T00:02:52.222Z,94332.00
2023-03-14T00:03:51.194Z,94332.00
2023-03-14T00:04:52.248Z,94334.00
2023-03-14T00:05:51.313Z,94326.00
2023-03-14T00:06:52.377Z,94322.00
2023-03-14T00:07:51.493Z,94318.00
2023-03-14T00:08:51.481Z,94316.00
2023-03-14T00:09:52.550Z,94314.00
2023-03-14T00:10:52.609Z,94312.00
2023-03-14T00:11:52.667Z,94310.00
2023-03-14T00:12:52.707Z,94312.00
2023-03-14T00:13:52.784Z,94310.00
2023-03-14T00:14:52.822Z,94312.00
2023-03-14T00:15:52.891Z,94314.00
2023-03-14T00:16:52.940Z,94310.00
2023-03-14T00:17:53.025Z,94312.00
2023-03-14T00:18:53.061Z,94312.00
2023-03-14T00:19:52.102Z,94312.00
2023-03-14T00:20:53.161Z,94308.00
2023-03-14T00:21:53.212Z,94306.00
2023-03-14T00:22:53.278Z,94304.00
2023-03-14T00:23:53.333Z,94306.00
2023-03-14T00:24:53.396Z,94304.00
2023-03-14T00:25:53.438Z,94298.00
2023-03-14T00:26:53.505Z,94290.00
2023-03-14T00:27:53.578Z,94283.00
2023-03-14T00:28:52.604Z,94281.00
2023-03-14T00:29:53.669Z,94281.00
2023-03-14T00:30:53.788Z,94277.00
2023-03-14T00:31:52.819Z,94279.00
2023-03-14T00:32:52.930Z,94275.00
2023-03-14T00:33:53.955Z,94271.00
2023-03-14T00:34:53.987Z,94265.00
2023-03-14T00:35:54.131Z,94265.00
2023-03-14T00:36:53.152Z,94271.00
2023-03-14T00:37:54.174Z,94273.00
2023-03-14T00:38:54.244Z,94273.00
2023-03-14T00:39:54.294Z,94271.00
2023-03-14T00:40:54.335Z,94273.00
2023-03-14T00:41:54.416Z,94277.00
2023-03-14T00:42:54.447Z,94277.00
2023-03-14T00:43:54.525Z,94279.00
2023-03-14T00:44:54.568Z,94277.00
2023-03-14T00:45:54.629Z,94275.00
2023-03-14T00:46:53.723Z,94279.00
2023-03-14T00:47:54.748Z,94279.00
2023-03-14T00:48:54.805Z,94285.00
2023-03-14T00:49:54.892Z,94285.00
2023-03-14T00:50:53.916Z,94289.00
2023-03-14T00:51:54.961Z,94294.00
2023-03-14T00:52:54.014Z,94290.00
2023-03-14T00:53:55.074Z,94283.00
2023-03-14T00:54:55.146Z,94279.00
2023-03-14T00:55:54.185Z,94275.00
2023-03-14T00:56:55.256Z,94275.00
2023-03-14T00:57:55.293Z,94273.00
2023-03-14T00:58:55.339Z,94273.00
2023-03-14T00:59:55.402Z,94273.00
2023-03-14T01:00:55.485Z,94273.00
2023-03-14T01:01:55.565Z,94273.00
2023-03-14T01:02:54.671Z,94275.00
2023-03-14T01:03:55.625Z,94273.00
2023-03-14T01:04:54.698Z,94271.00
2023-03-14T01:05:54.763Z,94275.00
2023-03-14T01:06:55.795Z,94275.00
2023-03-14T01:07:55.863Z,94277.00
2023-03-14T01:08:55.912Z,94277.00
2023-03-14T01:09:55.990Z,94273.00
2023-03-14T01:10:56.016Z,94271.00
2023-03-14T01:11:56.082Z,94263.00
2023-03-14T01:12:56.135Z,94259.00
2023-03-14T01:13:56.201Z,94253.00
2023-03-14T01:14:56.259Z,94249.00
2023-03-14T01:15:56.403Z,94253.00
2023-03-14T01:16:56.378Z,94251.00
2023-03-14T01:17:56.442Z,94253.00
2023-03-14T01:18:56.510Z,94251.00
2023-03-14T01:19:56.625Z,94251.00
2023-03-14T01:20:56.649Z,94251.00
2023-03-14T01:21:56.668Z,94253.00
2023-03-14T01:22:56.730Z,94259.00
2023-03-14T01:23:56.794Z,94261.00
2023-03-14T01:24:55.861Z,94257.00
2023-03-14T01:25:56.912Z,94259.00
2023-03-14T01:26:56.980Z,94253.00
2023-03-14T01:27:57.045Z,94255.00
2023-03-14T01:28:56.134Z,94265.00
2023-03-14T01:29:56.156Z,94269.00
2023-03-14T01:30:57.269Z,94267.00
2023-03-14T01:31:56.282Z,94265.00
2023-03-14T01:32:57.372Z,94269.00
2023-03-14T01:33:56.404Z,94271.00
2023-03-14T01:34:57.472Z,94275.00
2023-03-14T01:35:56.587Z,94281.00
2023-03-14T01:36:57.633Z,94279.00
2023-03-14T01:37:56.652Z,94275.00
2023-03-14T01:38:57.732Z,94265.00
2023-03-14T01:39:56.787Z,94263.00
2023-03-14T01:40:57.854Z,94261.00
2023-03-14T01:41:57.905Z,94255.00
2023-03-14T01:42:56.978Z,94257.00
2023-03-14T01:43:57.035Z,94261.00
2023-03-14T01:44:57.102Z,94257.00
2023-03-14T01:45:57.357Z,94255.00
2023-03-14T01:46:58.231Z,94253.00
2023-03-14T01:47:58.290Z,94249.00
2023-03-14T01:48:58.347Z,94243.00
2023-03-14T01:49:58.412Z,94240.00
2023-03-14T01:50:58.463Z,94242.00
2023-03-14T01:51:58.522Z,94236.00
2023-03-14T01:52:58.625Z,94238.00
2023-03-14T01:53:57.715Z,94240.00
2023-03-14T01:54:58.705Z,94242.00
2023-03-14T01:55:57.771Z,94243.00
2023-03-14T01:56:58.828Z,94240.00
2023-03-14T01:57:57.938Z,94240.00
2023-03-14T01:58:57.981Z,94242.00
2023-03-14T01:59:59.058Z,94247.00
2023-03-14T02:00:59.127Z,94253.00
2023-03-14T02:01:59.138Z,94245.00
2023-03-14T02:02:59.189Z,94242.00
2023-03-14T02:03:58.264Z,94243.00
2023-03-14T02:04:59.314Z,94243.00
2023-03-14T02:05:59.434Z,94245.00
2023-03-14T02:06:59.436Z,94245.00
2023-03-14T02:07:59.483Z,94245.00
2023-03-14T02:08:59.567Z,94245.00
2023-03-14T02:09:59.594Z,94247.00
2023-03-14T02:10:59.661Z,94249.00
2023-03-14T02:11:58.720Z,94247.00
2023-03-14T02:12:59.760Z,94249.00
2023-03-14T02:13:59.822Z,94247.00
2023-03-14T02:14:58.855Z,94249.00
2023-03-14T02:15:59.915Z,94255.00
2023-03-14T02:16:58.980Z,94257.00
2023-03-14T02:18:00.019Z,94263.00
2023-03-14T02:19:00.085Z,94263.00
2023-03-14T02:20:00.137Z,94265.00
2023-03-14T02:20:59.189Z,94265.00
2023-03-14T02:22:00.229Z,94273.00
2023-03-14T02:23:00.296Z,94271.00
2023-03-14T02:24:00.338Z,94271.00
2023-03-14T02:25:00.425Z,94275.00
2023-03-14T02:26:00.480Z,94265.00
2023-03-14T02:27:00.507Z,94263.00
2023-03-14T02:28:00.555Z,94265.00
2023-03-14T02:29:00.605Z,94265.00
2023-03-14T02:29:59.671Z,94265.00
2023-03-14T02:31:00.727Z,94263.00
2023-03-14T02:32:00.840Z,94265.00
2023-03-14T02:33:00.889Z,94269.00
2023-03-14T02:34:00.880Z,94275.00
2023-03-14T02:35:00.931Z,94275.00
2023-03-14T02:36:01.072Z,94279.00
2023-03-14T02:37:01.041Z,94285.00
2023-03-14T02:38:01.109Z,94285.00
2023-03-14T02:39:01.170Z,94290.00
2023-03-14T02:40:01.220Z,94294.00
2023-03-14T02:41:01.317Z,94296.00
2023-03-14T02:42:01.332Z,94294.00
2023-03-14T02:43:01.390Z,94298.00
2023-03-14T02:44:01.460Z,94298.00
2023-03-14T02:45:01.489Z,94292.00
2023-03-14T02:46:01.631Z,94287.00
2023-03-14T02:47:01.605Z,94281.00
2023-03-14T02:48:01.667Z,94273.00
2023-03-14T02:49:01.737Z,94277.00
2023-03-14T02:50:00.769Z,94279.00
2023-03-14T02:51:01.850Z,94279.00
2023-03-14T02:52:01.872Z,94277.00
2023-03-14T02:53:00.924Z,94275.00
2023-03-14T02:54:01.986Z,94273.00
2023-03-14T02:55:01.038Z,94275.00
2023-03-14T02:56:01.097Z,94281.00
2023-03-14T02:57:02.203Z,94283.00
2023-03-14T02:58:01.230Z,94289.00
2023-03-14T02:59:02.280Z,94287.00
2023-03-14T03:00:02.336Z,94287.00
2023-03-14T03:01:02.465Z,94289.00
2023-03-14T03:02:01.863Z,94283.00
2023-03-14T03:03:02.548Z,94279.00
2023-03-14T03:04:01.599Z,94283.00
2023-03-14T03:05:01.664Z,94289.00
2023-03-14T03:06:02.714Z,94292.00
2023-03-14T03:07:02.787Z,94294.00
2023-03-14T03:08:01.903Z,94290.00
2023-03-14T03:09:02.909Z,94285.00
2023-03-14T03:10:01.976Z,94283.00
2023-03-14T03:11:03.027Z,94281.00
2023-03-14T03:12:02.098Z,94287.00
2023-03-14T03:13:03.166Z,94292.00
2023-03-14T03:14:02.198Z,94302.00
2023-03-14T03:15:02.233Z,94302.00
2023-03-14T03:16:03.289Z,94304.00
2023-03-14T03:17:03.393Z,94298.00
2023-03-14T03:18:03.389Z,94298.00
2023-03-14T03:19:03.468Z,94294.00
2023-03-14T03:20:03.528Z,94294.00
2023-03-14T03:21:03.579Z,94294.00
2023-03-14T03:22:03.638Z,94294.00
2023-03-14T03:23:03.698Z,94302.00
2023-03-14T03:24:03.750Z,94304.00
2023-03-14T03:25:03.815Z,94312.00
2023-03-14T03:26:03.856Z,94316.00
2023-03-14T03:27:03.930Z,94320.00
2023-03-14T03:28:03.980Z,94322.00
2023-03-14T03:29:04.062Z,94324.00
2023-03-14T03:30:03.110Z,94328.00
2023-03-14T03:31:03.262Z,94330.00
2023-03-14T03:32:04.235Z,94330.00
2023-03-14T03:33:04.262Z,94336.00
2023-03-14T03:34:04.323Z,94336.00
2023-03-14T03:35:04.378Z,94336.00
2023-03-14T03:36:03.419Z,94343.00
2023-03-14T03:37:04.473Z,94351.00
2023-03-14T03:38:04.501Z,94361.00
2023-03-14T03:39:04.553Z,94365.00
2023-03-14T03:40:04.603Z,94369.00
2023-03-14T03:41:04.655Z,94375.00
2023-03-14T03:42:03.669Z,94384.00
2023-03-14T03:43:04.704Z,94384.00
2023-03-14T03:44:04.743Z,94388.00
2023-03-14T03:45:04.809Z,94386.00
2023-03-14T03:46:05.193Z,94386.00
2023-03-14T03:47:04.856Z,94388.00
2023-03-14T03:48:04.907Z,94392.00
2023-03-14T03:49:04.945Z,94394.00
2023-03-14T03:50:04.994Z,94396.00
2023-03-14T03:51:05.017Z,94396.00
2023-03-14T03:52:05.040Z,94396.00
2023-03-14T03:53:05.078Z,94400.00
2023-03-14T03:54:05.110Z,94402.00
2023-03-14T03:55:05.163Z,94404.00
2023-03-14T03:56:05.168Z,94406.00
2023-03-14T03:57:04.207Z,94410.00
2023-03-14T03:58:05.232Z,94414.00
2023-03-14T03:59:05.259Z,94414.00
2023-03-14T04:00:05.284Z,94416.00
2023-03-14T04:01:05.480Z,94418.00
2023-03-14T04:02:05.394Z,94422.00
2023-03-14T04:03:05.365Z,94422.00
2023-03-14T04:04:05.461Z,94424.00
2023-03-14T04:05:05.413Z,94426.00
2023-03-14T04:06:05.568Z,94424.00
2023-03-14T04:07:04.484Z,94428.00
2023-03-14T04:08:05.511Z,94432.00
2023-03-14T04:09:04.538Z,94432.00
2023-03-14T04:10:05.561Z,94432.00
2023-03-14T04:11:05.580Z,94426.00
2023-03-14T04:12:05.619Z,94424.00
2023-03-14T04:13:05.642Z,94420.00
2023-03-14T04:14:04.665Z,94418.00
2023-03-14T04:15:05.700Z,94416.00
2023-03-14T04:16:05.864Z,94420.00
2023-03-14T04:17:05.773Z,94412.00
2023-03-14T04:18:05.770Z,94414.00
2023-03-14T04:19:05.824Z,94414.00
2023-03-14T04:20:05.819Z,94412.00
2023-03-14T04:21:04.844Z,94410.00
2023-03-14T04:22:05.913Z,94408.00
2023-03-14T04:23:05.908Z,94410.00
2023-03-14T04:24:05.936Z,94412.00
2023-03-14T04:25:06.941Z,94408.00
2023-03-14T04:26:06.000Z,94406.00
2023-03-14T04:27:06.011Z,94402.00
2023-03-14T04:28:06.052Z,94398.00
2023-03-14T04:29:05.063Z,94394.00
2023-03-14T04:30:06.073Z,94394.00
2023-03-14T04:31:06.146Z,94396.00
2023-03-14T04:32:06.125Z,94392.00
2023-03-14T04:33:05.160Z,94394.00
2023-03-14T04:34:06.174Z,94392.00
2023-03-14T04:35:06.181Z,94392.00
2023-03-14T04:36:05.232Z,94396.00
2023-03-14T04:37:05.236Z,94396.00
2023-03-14T04:38:06.274Z,94398.00
2023-03-14T04:39:05.260Z,94398.00
2023-03-14T04:40:06.285Z,94396.00
2023-03-14T04:41:05.307Z,94396.00
2023-03-14T04:42:05.323Z,94390.00
2023-03-14T04:43:06.367Z,94386.00
2023-03-14T04:44:06.401Z,94382.00
2023-03-14T04:45:05.426Z,94375.00
2023-03-14T04:46:06.444Z,94375.00
2023-03-14T04:47:05.466Z,94371.00
2023-03-14T04:48:05.509Z,94369.00
2023-03-14T04:49:06.577Z,94371.00
2023-03-14T04:50:06.632Z,94375.00
2023-03-14T04:51:06.592Z,94384.00
2023-03-14T04:52:05.626Z,94384.00
2023-03-14T04:53:06.681Z,94384.00
2023-03-14T04:54:05.671Z,94382.00
2023-03-14T04:55:05.705Z,94375.00
2023-03-14T04:56:06.744Z,94382.00
2023-03-14T04:57:06.779Z,94375.00
2023-03-14T04:58:06.817Z,94382.00
2023-03-14T04:59:06.812Z,94384.00
2023-03-14T05:00:06.854Z,94375.00
2023-03-14T05:01:06.879Z,94371.00
2023-03-14T05:02:06.958Z,94363.00
2023-03-14T05:03:05.974Z,94361.00
2023-03-14T05:04:06.954Z,94361.00
2023-03-14T05:05:07.005Z,94361.00
2023-03-14T05:06:06.024Z,94359.00
2023-03-14T05:07:07.054Z,94361.00
2023-03-14T05:08:07.160Z,94363.00
2023-03-14T05:09:06.142Z,94359.00
2023-03-14T05:10:07.180Z,94357.00
2023-03-14T05:11:07.179Z,94355.00
2023-03-14T05:12:06.179Z,94351.00
2023-03-14T05:13:07.244Z,94349.00
2023-03-14T05:14:07.251Z,94349.00
2023-03-14T05:15:07.306Z,94349.00
2023-03-14T05:16:07.331Z,94349.00
2023-03-14T05:17:07.320Z,94347.00
2023-03-14T05:18:07.409Z,94345.00
2023-03-14T05:19:07.381Z,94343.00
2023-03-14T05:20:07.387Z,94339.00
2023-03-14T05:21:07.445Z,94339.00
2023-03-14T05:22:07.457Z,94339.00
2023-03-14T05:23:07.464Z,94334.00
2023-03-14T05:24:07.472Z,94334.00
2023-03-14T05:25:06.502Z,94330.00
2023-03-14T05:26:06.513Z,94330.00
2023-03-14T05:27:07.534Z,94330.00
2023-03-14T05:28:06.562Z,94330.00
2023-03-14T05:29:07.576Z,94328.00
2023-03-14T05:30:07.608Z,94328.00
2023-03-14T05:31:06.645Z,94324.00
2023-03-14T05:32:07.640Z,94322.00
2023-03-14T05:33:07.752Z,94318.00
2023-03-14T05:34:06.686Z,94320.00
2023-03-14T05:35:07.706Z,94316.00
2023-03-14T05:36:06.760Z,94316.00
2023-03-14T05:37:07.889Z,94314.00
2023-03-14T05:38:06.759Z,94310.00
2023-03-14T05:39:07.814Z,94306.00
2023-03-14T05:40:07.811Z,94302.00
2023-03-14T05:41:07.846Z,94300.00
2023-03-14T05:42:07.873Z,94302.00
2023-03-14T05:43:07.908Z,94300.00
2023-03-14T05:44:07.945Z,94302.00
2023-03-14T05:45:06.940Z,94302.00
2023-03-14T05:46:07.081Z,94304.00
2023-03-14T05:47:07.997Z,94310.00
2023-03-14T05:48:08.023Z,94310.00
2023-03-14T05:49:08.060Z,94310.00
2023-03-14T05:50:08.063Z,94312.00
2023-03-14T05:51:08.350Z,94312.00
2023-03-14T05:52:08.097Z,94312.00
2023-03-14T05:53:08.245Z,94312.00
2023-03-14T05:54:08.178Z,94312.00
2023-03-14T05:55:08.156Z,94312.00
2023-03-14T05:56:08.189Z,94316.00
2023-03-14T05:57:08.198Z,94312.00
2023-03-14T05:58:08.235Z,94312.00
2023-03-14T05:59:08.265Z,94306.00
2023-03-14T06:00:08.273Z,94302.00
2023-03-14T06:01:08.314Z,94298.00
2023-03-14T06:02:08.366Z,94296.00
2023-03-14T06:03:08.411Z,94290.00
2023-03-14T06:04:08.414Z,94290.00
2023-03-14T06:05:08.389Z,94285.00
2023-03-14T06:06:08.455Z,94277.00
2023-03-14T06:07:08.429Z,94271.00
2023-03-14T06:08:07.454Z,94271.00
2023-03-14T06:09:07.561Z,94269.00
2023-03-14T06:10:08.491Z,94267.00
2023-03-14T06:11:08.514Z,94267.00
2023-03-14T06:12:07.539Z,94269.00
2023-03-14T06:13:08.575Z,94267.00
2023-03-14T06:14:08.577Z,94265.00
2023-03-14T06:15:08.597Z,94261.00
2023-03-14T06:16:08.678Z,94259.00
2023-03-14T06:17:08.651Z,94255.00
2023-03-14T06:18:08.683Z,94255.00
2023-03-14T06:19:07.716Z,94257.00
2023-03-14T06:20:08.716Z,94255.00
2023-03-14T06:21:08.729Z,94259.00
2023-03-14T06:22:08.747Z,94253.00
2023-03-14T06:23:08.779Z,94251.00
2023-03-14T06:24:08.791Z,94253.00
2023-03-14T06:25:08.837Z,94249.00
2023-03-14T06:26:08.849Z,94249.00
2023-03-14T06:27:08.838Z,94247.00
2023-03-14T06:28:07.863Z,94247.00
2023-03-14T06:29:07.878Z,94245.00
2023-03-14T06:30:08.911Z,94245.00
2023-03-14T06:31:08.017Z,94243.00
2023-03-14T06:32:08.941Z,94240.00
2023-03-14T06:33:08.952Z,94238.00
2023-03-14T06:34:08.961Z,94232.00
2023-03-14T06:35:08.978Z,94230.00
2023-03-14T06:36:09.028Z,94228.00
2023-03-14T06:37:08.013Z,94224.00
2023-03-14T06:38:09.073Z,94224.00
2023-03-14T06:39:08.035Z,94220.00
2023-03-14T06:40:09.060Z,94218.00
2023-03-14T06:41:09.268Z,94218.00
2023-03-14T06:42:09.078Z,94214.00
2023-03-14T06:43:08.105Z,94214.00
2023-03-14T06:44:09.147Z,94212.00
2023-03-14T06:45:09.125Z,94210.00
2023-03-14T06:46:09.226Z,94214.00
2023-03-14T06:47:09.145Z,94212.00
2023-03-14T06:48:09.137Z,94216.00
2023-03-14T06:49:08.142Z,94214.00
2023-03-14T06:50:09.156Z,94214.00
2023-03-14T06:51:08.551Z,94214.00
2023-03-14T06:52:09.148Z,94212.00
2023-03-14T06:53:09.198Z,94206.00
2023-03-14T06:54:09.209Z,94206.00
2023-03-14T06:55:09.159Z,94202.00
2023-03-14T06:56:09.165Z,94196.00
2023-03-14T06:57:09.241Z,94192.00
2023-03-14T06:58:09.305Z,94191.00
2023-03-14T06:59:09.489Z,94189.00
2023-03-14T07:00:09.719Z,94191.00
2023-03-14T07:01:08.521Z,94194.00
2023-03-14T07:02:09.619Z,94198.00
2023-03-14T07:03:08.571Z,94202.00
2023-03-14T07:04:09.690Z,94212.00
2023-03-14T07:05:09.675Z,94214.00
2023-03-14T07:06:09.686Z,94212.00
2023-03-14T07:07:09.705Z,94210.00
2023-03-14T07:08:09.701Z,94208.00
2023-03-14T07:09:09.784Z,94212.00
2023-03-14T07:10:09.964Z,94212.00
2023-03-14T07:11:09.737Z,94210.00
2023-03-14T07:12:09.740Z,94210.00
2023-03-14T07:13:09.862Z,94212.00
2023-03-14T07:14:09.804Z,94216.00
2023-03-14T07:15:18.252Z,94224.00
2023-03-14T07:16:10.092Z,94228.00
2023-03-14T07:17:09.738Z,94238.00
2023-03-14T07:18:09.722Z,94243.00
2023-03-14T07:19:09.752Z,94247.00
2023-03-14T07:20:08.742Z,94249.00
2023-03-14T07:21:09.721Z,94247.00
2023-03-14T07:22:08.728Z,94243.00
2023-03-14T07:23:09.724Z,94245.00
2023-03-14T07:24:09.722Z,94247.00
2023-03-14T07:25:09.709Z,94247.00
2023-03-14T07:26:08.853Z,94253.00
2023-03-14T07:27:11.401Z,94257.00
2023-03-14T07:28:09.702Z,94261.00
2023-03-14T07:29:10.124Z,94261.00
2023-03-14T07:30:08.676Z,94259.00
2023-03-14T07:31:09.886Z,94259.00
2023-03-14T07:32:09.647Z,94255.00
2023-03-14T07:33:11.427Z,94257.00
2023-03-14T07:34:09.650Z,94259.00
2023-03-14T07:35:09.928Z,94261.00
2023-03-14T07:36:10.136Z,94265.00
2023-03-14T07:37:10.130Z,94265.00
2023-03-14T07:38:08.617Z,94271.00
2023-03-14T07:39:08.762Z,94269.00
2023-03-14T07:40:09.656Z,94271.00
2023-03-14T07:41:09.578Z,94277.00
2023-03-14T07:42:09.616Z,94273.00
2023-03-14T07:43:09.597Z,94275.00
2023-03-14T07:44:08.578Z,94277.00
2023-03-14T07:45:09.611Z,94279.00
2023-03-14T07:46:09.617Z,94287.00
2023-03-14T07:47:09.626Z,94285.00
2023-03-14T07:48:09.585Z,94285.00
2023-03-14T07:49:09.648Z,94283.00
2023-03-14T07:50:09.867Z,94281.00
2023-03-14T07:51:08.742Z,94277.00
2023-03-14T07:52:09.550Z,94271.00
2023-03-14T07:53:09.537Z,94269.00
2023-03-14T07:54:09.495Z,94273.00
2023-03-14T07:55:09.589Z,94275.00
2023-03-14T07:56:09.573Z,94277.00
2023-03-14T07:57:09.609Z,94269.00
2023-03-14T07:58:09.665Z,94269.00
2023-03-14T07:59:09.777Z,94265.00
2023-03-14T08:00:09.755Z,94269.00
2023-03-14T08:01:10.005Z,94273.00
2023-03-14T08:02:09.875Z,94269.00
2023-03-14T08:03:09.938Z,94267.00
2023-03-14T08:04:10.094Z,94269.00
2023-03-14T08:05:10.062Z,94263.00
2023-03-14T08:06:10.099Z,94265.00
2023-03-14T08:07:10.205Z,94267.00
2023-03-14T08:08:10.257Z,94269.00
2023-03-14T08:09:10.284Z,94273.00
2023-03-14T08:10:10.338Z,94273.00
2023-03-14T08:11:10.404Z,94279.00
2023-03-14T08:12:10.434Z,94277.00
2023-03-14T08:13:10.455Z,94279.00
2023-03-14T08:14:10.473Z,94281.00
2023-03-14T08:15:10.511Z,94281.00
2023-03-14T08:16:10.528Z,94279.00
2023-03-14T08:17:10.590Z,94281.00
2023-03-14T08:18:09.548Z,94281.00
2023-03-14T08:19:10.498Z,94281.00
2023-03-14T08:20:09.542Z,94283.00
2023-03-14T08:21:10.482Z,94283.00
2023-03-14T08:22:10.482Z,94285.00
2023-03-14T08:23:10.525Z,94281.00
2023-03-14T08:24:10.484Z,94283.00
2023-03-14T08:25:10.521Z,94281.00
2023-03-14T08:26:10.467Z,94283.00
2023-03-14T08:27:11.217Z,94281.00
2023-03-14T08:28:09.490Z,94285.00
2023-03-14T08:29:10.505Z,94283.00
2023-03-14T08:30:10.510Z,94285.00
2023-03-14T08:31:09.659Z,94287.00
2023-03-14T08:32:10.726Z,94287.00
2023-03-14T08:33:10.498Z,94285.00
2023-03-14T08:34:10.476Z,94285.00
2023-03-14T08:35:10.505Z,94283.00
2023-03-14T08:36:10.684Z,94283.00
2023-03-14T08:37:19.986Z,94283.00
2023-03-14T08:38:10.510Z,94279.00
2023-03-14T08:39:10.498Z,94277.00
2023-03-14T08:40:09.506Z,94279.00
2023-03-14T08:41:10.485Z,94275.00
2023-03-14T08:42:10.468Z,94275.00
2023-03-14T08:43:10.456Z,94277.00
2023-03-14T08:44:10.533Z,94279.00
2023-03-14T08:45:09.492Z,94279.00
2023-03-14T08:46:10.446Z,94281.00
2023-03-14T08:47:10.560Z,94281.00
2023-03-14T08:48:10.441Z,94285.00
2023-03-14T08:49:10.456Z,94287.00
2023-03-14T08:50:11.792Z,94289.00
2023-03-14T08:51:09.422Z,94290.00
2023-03-14T08:52:10.415Z,94290.00
2023-03-14T08:53:10.440Z,94289.00
2023-03-14T08:54:09.389Z,94290.00
2023-03-14T08:55:10.394Z,94289.00
2023-03-14T08:56:09.386Z,94290.00
2023-03-14T08:57:10.377Z,94294.00
2023-03-14T08:58:10.364Z,94294.00
2023-03-14T08:59:10.364Z,94296.00
2023-03-14T09:00:09.388Z,94298.00
2023-03-14T09:01:10.382Z,94300.00
2023-03-14T09:02:12.330Z,94304.00
2023-03-14T09:03:09.359Z,94308.00
2023-03-14T09:04:10.420Z,94314.00
2023-03-14T09:05:10.389Z,94312.00
2023-03-14T09:06:10.321Z,94316.00
2023-03-14T09:07:10.308Z,94318.00
2023-03-14T09:08:10.309Z,94320.00
2023-03-14T09:09:10.330Z,94318.00
2023-03-14T09:10:10.288Z,94320.00
2023-03-14T09:11:10.328Z,94320.00
2023-03-14T09:12:10.309Z,94322.00
2023-03-14T09:13:10.282Z,94324.00
2023-03-14T09:14:09.259Z,94328.00
2023-03-14T09:15:10.278Z,94328.00
2023-03-14T09:16:09.288Z,94330.00
2023-03-14T09:17:10.231Z,94328.00
2023-03-14T09:18:10.251Z,94332.00
2023-03-14T09:19:10.247Z,94334.00
2023-03-14T09:20:10.254Z,94336.00
2023-03-14T09:21:10.247Z,94337.00
2023-03-14T09:22:10.206Z,94336.00
2023-03-14T09:23:10.211Z,94341.00
2023-03-14T09:24:10.248Z,94339.00
2023-03-14T09:25:10.208Z,94336.00
2023-03-14T09:26:09.196Z,94336.00
2023-03-14T09:27:10.218Z,94339.00
2023-03-14T09:28:10.199Z,94339.00
2023-03-14T09:29:10.237Z,94343.00
2023-03-14T09:30:10.171Z,94343.00
2023-03-14T09:31:10.226Z,94345.00
2023-03-14T09:32:10.160Z,94339.00
2023-03-14T09:33:10.163Z,94343.00
2023-03-14T09:34:10.164Z,94341.00
2023-03-14T09:35:09.141Z,94339.00
2023-03-14T09:36:10.137Z,94341.00
2023-03-14T09:37:10.149Z,94343.00
2023-03-14T09:38:09.122Z,94345.00
2023-03-14T09:39:09.106Z,94347.00
2023-03-14T09:40:11.395Z,94347.00
2023-03-14T09:41:10.750Z,94349.00
2023-03-14T09:42:10.614Z,94345.00
2023-03-14T09:43:09.236Z,94351.00
2023-03-14T09:44:10.246Z,94345.00
2023-03-14T09:45:10.304Z,94339.00
2023-03-14T09:46:11.810Z,94343.00
2023-03-14T09:47:10.344Z,94341.00
2023-03-14T09:48:10.362Z,94343.00
2023-03-14T09:49:10.339Z,94341.00
2023-03-14T09:50:10.362Z,94345.00
2023-03-14T09:51:10.334Z,94349.00
2023-03-14T09:52:10.323Z,94353.00
2023-03-14T09:53:10.328Z,94353.00
2023-03-14T09:54:10.336Z,94355.00
2023-03-14T09:55:10.309Z,94355.00
2023-03-14T09:56:10.485Z,94355.00
2023-03-14T09:57:09.298Z,94357.00
2023-03-14T09:58:10.261Z,94359.00
2023-03-14T09:59:09.285Z,94361.00
2023-03-14T10:00:09.251Z,94357.00
2023-03-14T10:01:09.305Z,94359.00
2023-03-14T10:02:10.237Z,94357.00
2023-03-14T10:03:10.225Z,94359.00
2023-03-14T10:04:09.291Z,94357.00
2023-03-14T10:05:10.287Z,94359.00
2023-03-14T10:06:10.226Z,94355.00
2023-03-14T10:07:10.240Z,94357.00
2023-03-14T10:08:10.253Z,94351.00
2023-03-14T10:09:10.310Z,94357.00
2023-03-14T10:10:09.253Z,94361.00
2023-03-14T10:11:10.221Z,94361.00
2023-03-14T10:12:11.296Z,94365.00
2023-03-14T10:13:10.175Z,94367.00
2023-03-14T10:14:10.197Z,94369.00
2023-03-14T10:15:10.183Z,94371.00
2023-03-14T10:16:09.290Z,94371.00
2023-03-14T10:17:10.397Z,94373.00
2023-03-14T10:18:10.321Z,94375.00
2023-03-14T10:19:10.442Z,94373.00
2023-03-14T10:20:10.409Z,94382.00
2023-03-14T10:21:10.454Z,94382.00
2023-03-14T10:22:09.471Z,94382.00
2023-03-14T10:23:10.639Z,94384.00
2023-03-14T10:24:10.573Z,94382.00
2023-03-14T10:25:09.645Z,94384.00
2023-03-14T10:26:09.698Z,94386.00
2023-03-14T10:27:10.690Z,94392.00
2023-03-14T10:28:10.766Z,94394.00
2023-03-14T10:29:10.811Z,94398.00
2023-03-14T10:30:09.827Z,94398.00
2023-03-14T10:31:10.970Z,94400.00
2023-03-14T10:32:10.887Z,94402.00
2023-03-14T10:33:09.889Z,94404.00
2023-03-14T10:34:10.914Z,94412.00
2023-03-14T10:35:10.982Z,94414.00
2023-03-14T10:36:13.956Z,94420.00
2023-03-14T10:37:10.965Z,94424.00
2023-03-14T10:38:10.950Z,94426.00
2023-03-14T10:39:10.948Z,94432.00
2023-03-14T10:40:11.079Z,94434.00
2023-03-14T10:41:11.092Z,94437.00
2023-03-14T10:42:10.928Z,94439.00
2023-03-14T10:43:10.942Z,94437.00
2023-03-14T10:44:10.912Z,94436.00
2023-03-14T10:45:10.918Z,94436.00
2023-03-14T10:46:11.050Z,94432.00
2023-03-14T10:47:10.008Z,94426.00
2023-03-14T10:48:10.900Z,94410.00
2023-03-14T10:49:10.887Z,94394.00
2023-03-14T10:50:10.916Z,94365.00
2023-03-14T10:51:10.901Z,94345.00
2023-03-14T10:52:10.997Z,94339.00
2023-03-14T10:53:10.954Z,94334.00
2023-03-14T10:54:10.985Z,94334.00
2023-03-14T10:55:11.026Z,94337.00
2023-03-14T10:56:11.105Z,94337.00
2023-03-14T10:57:11.254Z,94341.00
2023-03-14T10:58:11.176Z,94339.00
2023-03-14T10:59:11.226Z,94347.00
2023-03-14T11:00:11.248Z,94347.00
2023-03-14T11:01:11.464Z,94349.00
2023-03-14T11:02:13.476Z,94347.00
2023-03-14T11:03:11.359Z,94349.00
2023-03-14T11:04:10.330Z,94345.00
2023-03-14T11:05:11.377Z,94349.00
2023-03-14T11:06:11.337Z,94349.00
2023-03-14T11:07:10.396Z,94345.00
2023-03-14T11:08:11.355Z,94349.00
2023-03-14T11:09:11.321Z,94345.00
2023-03-14T11:10:10.312Z,94347.00
2023-03-14T11:11:11.405Z,94353.00
2023-03-14T11:12:11.286Z,94353.00
2023-03-14T11:13:11.350Z,94353.00
2023-03-14T11:14:11.373Z,94347.00
2023-03-14T11:15:11.299Z,94345.00
2023-03-14T11:16:11.339Z,94341.00
2023-03-14T11:17:11.319Z,94341.00
2023-03-14T11:18:10.253Z,94341.00
2023-03-14T11:19:10.280Z,94341.00
2023-03-14T11:20:11.239Z,94341.00
2023-03-14T11:21:11.248Z,94337.00
2023-03-14T11:22:11.243Z,94337.00
2023-03-14T11:23:11.213Z,94337.00
2023-03-14T11:24:11.215Z,94339.00
2023-03-14T11:25:11.202Z,94339.00
2023-03-14T11:26:10.205Z,94341.00
2023-03-14T11:27:11.210Z,94345.00
2023-03-14T11:28:11.187Z,94349.00
2023-03-14T11:29:10.236Z,94351.00
2023-03-14T11:30:11.272Z,94351.00
2023-03-14T11:31:11.373Z,94351.00
2023-03-14T11:32:10.376Z,94351.00
2023-03-14T11:33:11.459Z,94347.00
2023-03-14T11:34:11.501Z,94345.00
2023-03-14T11:35:10.575Z,94343.00
2023-03-14T11:36:10.652Z,94345.00
2023-03-14T11:37:11.691Z,94345.00
2023-03-14T11:38:11.759Z,94343.00
2023-03-14T11:39:11.801Z,94341.00
2023-03-14T11:40:11.911Z,94339.00
2023-03-14T11:41:11.941Z,94337.00
2023-03-14T11:42:11.993Z,94339.00
2023-03-14T11:43:12.066Z,94343.00
2023-03-14T11:44:12.105Z,94345.00
2023-03-14T11:45:11.175Z,94347.00